Terminal Aerodrome Forecast
Issued by NWS St Louis, MO

Home | Current Version | Previous Version | Text Only | Print | Product List | Glossary On
Versions: 1 2 3 4 5 6 7 8 9 10 11 12 13 14 15 16 17 18 19 20 21 22
209
FTUS43 KLSX 032331
TAFCOU
TAF
KCOU 032331Z 0400/0424 11005KT P6SM OVC080
     FM040600 13005KT 5SM -RA OVC050
     FM040900 12005KT 3SM -RA OVC010
     FM041400 20005KT 2SM -RA OVC008
     FM041800 22005KT P6SM OVC008
     FM042000 26005KT P6SM OVC015
     FM042300 26004KT P6SM BKN035=

USA.gov is the U.S. government's official web portal to all federal, state and local government web resources and services.